createdAt,value
2022-10-07T00:00:44.991Z,102914.81
2022-10-07T00:03:28.300Z,102910.47
2022-10-07T00:06:01.445Z,102910.44
2022-10-07T00:08:28.708Z,102907.66
2022-10-07T00:10:55.963Z,102912.09
2022-10-07T00:13:23.101Z,102913.03
2022-10-07T00:15:49.972Z,102901.63
2022-10-07T00:18:16.891Z,102900.81
2022-10-07T00:20:43.992Z,102903.25
2022-10-07T00:23:10.799Z,102903.50
2022-10-07T00:25:40.577Z,102909.75
2022-10-07T00:28:07.773Z,102903.56
2022-10-07T00:30:34.772Z,102900.16
2022-10-07T00:33:01.629Z,102896.59
2022-10-07T00:35:28.771Z,102890.69
2022-10-07T00:37:55.852Z,102892.31
2022-10-07T00:40:22.765Z,102892.38
2022-10-07T00:42:52.051Z,102895.81
2022-10-07T00:45:21.847Z,102884.88
2022-10-07T00:47:49.994Z,102879.38
2022-10-07T00:50:24.538Z,102884.69
2022-10-07T00:52:52.919Z,102891.44
2022-10-07T00:55:23.608Z,102882.19
2022-10-07T00:57:52.105Z,102866.19
2022-10-07T01:00:21.961Z,102868.66
2022-10-07T01:02:49.240Z,102869.78
2022-10-07T01:05:16.531Z,102860.88
2022-10-07T01:07:44.217Z,102862.38
2022-10-07T01:10:12.303Z,102863.34
2022-10-07T01:12:39.142Z,102857.06
2022-10-07T01:15:11.817Z,102852.53
2022-10-07T01:17:53.389Z,102858.81
2022-10-07T01:20:40.619Z,102851.09
2022-10-07T01:23:32.830Z,102859.25
2022-10-07T01:26:14.922Z,102847.66
2022-10-07T01:28:48.066Z,102842.41
2022-10-07T01:31:17.749Z,102840.44
2022-10-07T01:33:46.272Z,102837.06
2022-10-07T01:36:15.721Z,102832.97
2022-10-07T01:38:45.971Z,102830.53
2022-10-07T01:41:15.342Z,102832.50
2022-10-07T01:43:43.181Z,102836.88
2022-10-07T01:46:13.851Z,102824.88
2022-10-07T01:48:41.010Z,102824.94
2022-10-07T01:51:08.413Z,102823.91
2022-10-07T01:53:54.150Z,102816.81
2022-10-07T01:56:39.733Z,102820.47
2022-10-07T01:59:21.958Z,102811.69
2022-10-07T02:02:13.935Z,102817.00
2022-10-07T02:04:41.310Z,102818.81
2022-10-07T02:07:28.352Z,102810.06
2022-10-07T02:09:55.534Z,102804.59
2022-10-07T02:12:22.583Z,102809.19
2022-10-07T02:14:54.040Z,102807.34
2022-10-07T02:17:21.797Z,102805.44
2022-10-07T02:19:53.477Z,102804.84
2022-10-07T02:22:23.242Z,102802.88
2022-10-07T02:24:51.198Z,102809.13
2022-10-07T02:27:21.521Z,102797.78
2022-10-07T02:29:49.093Z,102802.03
2022-10-07T02:32:19.153Z,102796.94
2022-10-07T02:34:49.202Z,102802.19
2022-10-07T02:37:24.127Z,102804.03
2022-10-07T02:39:51.888Z,102805.75
2022-10-07T02:42:28.043Z,102800.53
2022-10-07T02:45:11.190Z,102789.84
2022-10-07T02:47:45.798Z,102789.81
2022-10-07T02:50:15.082Z,102782.88
2022-10-07T02:52:43.876Z,102785.31
2022-10-07T02:55:12.259Z,102788.94
2022-10-07T02:57:41.313Z,102788.78
2022-10-07T03:00:11.129Z,102784.75
2022-10-07T03:02:55.032Z,102791.78
2022-10-07T03:05:22.705Z,102781.06
2022-10-07T03:07:51.289Z,102782.97
2022-10-07T03:10:18.493Z,102783.09
2022-10-07T03:12:45.594Z,102785.66
2022-10-07T03:15:13.028Z,102784.88
2022-10-07T03:17:40.861Z,102786.78
2022-10-07T03:20:09.010Z,102778.22
2022-10-07T03:22:36.323Z,102776.53
2022-10-07T03:25:03.300Z,102770.47
2022-10-07T03:27:30.317Z,102773.88
2022-10-07T03:29:58.706Z,102767.56
2022-10-07T03:32:27.403Z,102767.53
2022-10-07T03:34:54.939Z,102767.66
2022-10-07T03:37:22.655Z,102764.44
2022-10-07T03:39:49.973Z,102767.09
2022-10-07T03:42:16.821Z,102762.72
2022-10-07T03:44:43.676Z,102767.88
2022-10-07T03:47:11.101Z,102758.22
2022-10-07T03:49:39.529Z,102758.38
2022-10-07T03:52:06.769Z,102762.81
2022-10-07T03:54:34.379Z,102756.69
2022-10-07T03:57:01.620Z,102752.50
2022-10-07T03:59:28.537Z,102751.59
2022-10-07T04:01:55.745Z,102752.44
2022-10-07T04:04:22.553Z,102751.63
2022-10-07T04:06:49.373Z,102749.13
2022-10-07T04:09:16.500Z,102746.56
2022-10-07T04:11:43.877Z,102740.50
2022-10-07T04:14:10.713Z,102742.34
2022-10-07T04:16:38.837Z,102735.31
2022-10-07T04:19:06.150Z,102732.72
2022-10-07T04:21:33.657Z,102732.75
2022-10-07T04:24:00.908Z,102727.53
2022-10-07T04:26:27.769Z,102728.50
2022-10-07T04:28:54.640Z,102729.44
2022-10-07T04:31:21.816Z,102724.31
2022-10-07T04:33:48.742Z,102728.63
2022-10-07T04:36:16.844Z,102728.63
2022-10-07T04:38:45.657Z,102721.66
2022-10-07T04:41:12.533Z,102722.50
2022-10-07T04:43:39.322Z,102719.09
2022-10-07T04:46:08.400Z,102721.88
2022-10-07T04:48:36.036Z,102713.19
2022-10-07T04:51:07.933Z,102707.94
2022-10-07T04:53:36.486Z,102710.53
2022-10-07T04:56:03.852Z,102713.22
2022-10-07T04:58:31.346Z,102701.84
2022-10-07T05:00:59.198Z,102708.81
2022-10-07T05:03:28.470Z,102702.75
2022-10-07T05:05:56.593Z,102704.44
2022-10-07T05:08:27.117Z,102698.44
2022-10-07T05:10:54.961Z,102694.22
2022-10-07T05:13:23.440Z,102696.75
2022-10-07T05:15:51.239Z,102697.66
2022-10-07T05:18:19.338Z,102694.97
2022-10-07T05:20:47.782Z,102694.16
2022-10-07T05:23:15.590Z,102693.34
2022-10-07T05:25:44.086Z,102695.03
2022-10-07T05:28:11.806Z,102694.19
2022-10-07T05:30:39.237Z,102684.69
2022-10-07T05:33:06.953Z,102683.72
2022-10-07T05:35:34.356Z,102682.81
2022-10-07T05:38:01.377Z,102676.75
2022-10-07T05:40:28.889Z,102682.88
2022-10-07T05:42:55.803Z,102678.44
2022-10-07T05:45:22.959Z,102674.09
2022-10-07T05:47:49.912Z,102676.78
2022-10-07T05:50:17.089Z,102674.13
2022-10-07T05:52:45.477Z,102674.16
2022-10-07T05:55:12.580Z,102674.13
2022-10-07T05:57:40.105Z,102667.97
2022-10-07T06:00:08.105Z,102674.16
2022-10-07T06:02:36.404Z,102668.91
2022-10-07T06:05:03.829Z,102667.31
2022-10-07T06:07:30.684Z,102675.81
2022-10-07T06:10:16.130Z,102677.63
2022-10-07T06:13:01.718Z,102674.81
2022-10-07T06:15:30.134Z,102668.56
2022-10-07T06:17:57.217Z,102671.97
2022-10-07T06:20:26.347Z,102669.41
2022-10-07T06:22:54.564Z,102667.56
2022-10-07T06:25:21.725Z,102663.91
2022-10-07T06:27:53.924Z,102670.94
2022-10-07T06:30:21.714Z,102662.94
2022-10-07T06:32:48.882Z,102660.28
2022-10-07T06:35:15.805Z,102661.94
2022-10-07T06:37:43.198Z,102657.28
2022-10-07T06:40:11.064Z,102658.78
2022-10-07T06:42:38.250Z,102657.78
2022-10-07T06:45:05.481Z,102653.31
2022-10-07T06:47:32.725Z,102658.41
2022-10-07T06:49:59.493Z,102660.06
2022-10-07T06:52:26.609Z,102659.88
2022-10-07T06:54:53.412Z,102661.41
2022-10-07T06:57:44.247Z,102656.81
2022-10-07T07:00:07.724Z,102654.84
2022-10-07T07:02:35.005Z,102659.19
2022-10-07T07:05:04.789Z,102658.41
2022-10-07T07:07:32.029Z,102658.25
2022-10-07T07:09:58.902Z,102651.84
2022-10-07T07:12:26.713Z,102657.50
2022-10-07T07:14:53.615Z,102658.13
2022-10-07T07:17:20.999Z,102656.00
2022-10-07T07:19:47.857Z,102656.59
2022-10-07T07:22:15.155Z,102653.69
2022-10-07T07:24:42.017Z,102655.97
2022-10-07T07:27:09.113Z,102647.94
2022-10-07T07:29:35.924Z,102645.38
2022-10-07T07:32:04.597Z,102649.41
2022-10-07T07:34:33.854Z,102648.41
2022-10-07T07:37:01.096Z,102648.63
2022-10-07T07:39:28.019Z,102648.09
2022-10-07T07:41:55.613Z,102643.50
2022-10-07T07:44:23.598Z,102638.44
2022-10-07T07:46:52.375Z,102640.50
2022-10-07T07:49:21.033Z,102641.19
2022-10-07T07:51:48.135Z,102638.28
2022-10-07T07:54:15.257Z,102631.75
2022-10-07T07:56:42.818Z,102639.09
2022-10-07T07:59:10.791Z,102623.84
2022-10-07T08:01:39.102Z,102621.72
2022-10-07T08:04:06.410Z,102629.09
2022-10-07T08:06:34.905Z,102620.91
2022-10-07T08:09:01.821Z,102619.81
2022-10-07T08:11:30.386Z,102613.59
2022-10-07T08:13:57.735Z,102608.50
2022-10-07T08:16:26.161Z,102607.53
2022-10-07T08:18:54.470Z,102600.44
2022-10-07T08:21:27.045Z,102598.78
2022-10-07T08:23:55.212Z,102600.06
2022-10-07T08:26:22.370Z,102596.13
2022-10-07T08:28:49.522Z,102592.66
2022-10-07T08:31:18.119Z,102588.50
2022-10-07T08:33:46.486Z,102582.44
2022-10-07T08:36:14.886Z,102576.22
2022-10-07T08:38:42.705Z,102577.19
2022-10-07T08:41:10.051Z,102570.81
2022-10-07T08:43:38.417Z,102558.25
2022-10-07T08:46:05.961Z,102565.81
2022-10-07T08:48:38.452Z,102551.81
2022-10-07T08:51:26.096Z,102550.06
2022-10-07T08:53:55.285Z,102551.41
2022-10-07T08:56:24.130Z,102553.91
2022-10-07T08:59:03.509Z,102536.94
2022-10-07T09:01:46.150Z,102535.81
2022-10-07T09:04:19.614Z,102536.56
2022-10-07T09:06:58.956Z,102530.84
2022-10-07T09:09:28.640Z,102530.72
2022-10-07T09:11:56.517Z,102520.00
2022-10-07T09:14:29.217Z,102515.94
2022-10-07T09:17:04.067Z,102516.47
2022-10-07T09:19:36.776Z,102500.31
2022-10-07T09:22:08.572Z,102513.03
2022-10-07T09:24:35.621Z,102506.31
2022-10-07T09:27:08.069Z,102493.81
2022-10-07T09:29:36.593Z,102499.81
2022-10-07T09:32:03.869Z,102498.72
2022-10-07T09:34:31.423Z,102489.28
2022-10-07T09:37:13.067Z,102493.75
2022-10-07T09:39:40.850Z,102490.50
2022-10-07T09:42:09.673Z,102486.72
2022-10-07T09:44:36.996Z,102482.38
2022-10-07T09:47:27.048Z,102484.31
2022-10-07T09:49:57.014Z,102477.56
2022-10-07T09:52:24.916Z,102469.94
2022-10-07T09:54:53.142Z,102466.34
2022-10-07T09:57:23.305Z,102463.91
2022-10-07T09:59:50.254Z,102456.09
2022-10-07T10:02:25.510Z,102454.91
2022-10-07T10:04:56.859Z,102457.88
2022-10-07T10:07:28.585Z,102453.78
2022-10-07T10:09:57.079Z,102446.91
2022-10-07T10:12:25.249Z,102449.13
2022-10-07T10:14:53.433Z,102445.13
2022-10-07T10:17:22.257Z,102449.25
2022-10-07T10:19:49.063Z,102434.22
2022-10-07T10:22:30.049Z,102438.84
2022-10-07T10:25:16.061Z,102423.78
2022-10-07T10:28:03.471Z,102421.97
2022-10-07T10:30:31.361Z,102415.13
2022-10-07T10:33:17.273Z,102418.44
2022-10-07T10:35:56.256Z,102413.41
2022-10-07T10:38:26.514Z,102413.41
2022-10-07T10:41:15.376Z,102404.22
2022-10-07T10:44:01.467Z,102402.47
2022-10-07T10:46:42.694Z,102407.31
2022-10-07T10:49:17.586Z,102392.88
2022-10-07T10:52:03.289Z,102391.75
2022-10-07T10:54:38.916Z,102378.00
2022-10-07T10:57:05.764Z,102374.50
2022-10-07T10:59:55.615Z,102367.56
2022-10-07T11:02:22.559Z,102361.16
2022-10-07T11:04:58.401Z,102352.00
2022-10-07T11:07:29.800Z,102349.47
2022-10-07T11:10:17.780Z,102351.44
2022-10-07T11:12:47.403Z,102345.38
2022-10-07T11:15:24.249Z,102340.81
2022-10-07T11:17:53.840Z,102332.03
2022-10-07T11:20:20.990Z,102329.09
2022-10-07T11:23:08.112Z,102325.69
2022-10-07T11:25:43.589Z,102311.47
2022-10-07T11:28:20.374Z,102320.13
2022-10-07T11:30:51.491Z,102311.28
2022-10-07T11:33:24.215Z,102299.19
2022-10-07T11:35:53.969Z,102297.16
2022-10-07T11:38:24.270Z,102292.31
2022-10-07T11:40:53.745Z,102294.31
2022-10-07T11:43:33.278Z,102279.91
2022-10-07T11:46:03.698Z,102285.31
2022-10-07T11:48:49.286Z,102277.16
2022-10-07T11:51:29.325Z,102275.94
2022-10-07T11:53:57.956Z,102259.78
2022-10-07T11:56:26.976Z,102254.38
2022-10-07T11:59:01.811Z,102253.06
2022-10-07T12:01:29.141Z,102251.63
2022-10-07T12:04:02.318Z,102243.00
2022-10-07T12:06:29.416Z,102243.56
2022-10-07T12:08:56.667Z,102239.22
2022-10-07T12:11:24.906Z,102232.97
2022-10-07T12:13:53.384Z,102225.78
2022-10-07T12:16:42.195Z,102217.63
2022-10-07T12:19:10.921Z,102214.78
2022-10-07T12:22:04.233Z,102211.94
2022-10-07T12:24:32.612Z,102215.63
2022-10-07T12:27:19.809Z,102205.31
2022-10-07T12:29:48.577Z,102205.22
2022-10-07T12:32:35.165Z,102197.28
2022-10-07T12:35:22.206Z,102192.72
2022-10-07T12:37:51.840Z,102187.03
2022-10-07T12:40:22.665Z,102180.91
2022-10-07T12:42:56.881Z,102179.22
2022-10-07T12:45:26.497Z,102174.59
2022-10-07T12:47:55.326Z,102171.81
2022-10-07T12:50:23.907Z,102181.28
2022-10-07T12:52:54.881Z,102176.06
2022-10-07T12:55:29.687Z,102165.78
2022-10-07T12:58:20.738Z,102167.00
2022-10-07T13:00:56.241Z,102163.00
2022-10-07T13:03:42.229Z,102150.13
2022-10-07T13:06:18.201Z,102155.44
2022-10-07T13:08:54.400Z,102148.03
2022-10-07T13:11:31.304Z,102141.06
2022-10-07T13:14:01.395Z,102147.56
2022-10-07T13:16:31.993Z,102136.69
2022-10-07T13:19:03.365Z,102138.50
2022-10-07T13:21:42.042Z,102133.28
2022-10-07T13:24:16.867Z,102119.09
2022-10-07T13:26:44.729Z,102133.69
2022-10-07T13:29:30.094Z,102122.19
2022-10-07T13:32:03.328Z,102121.94
2022-10-07T13:34:31.375Z,102111.22
2022-10-07T13:36:58.394Z,102100.63
2022-10-07T13:39:26.240Z,102091.38
2022-10-07T13:41:58.145Z,102096.56
2022-10-07T13:44:29.349Z,102102.06
2022-10-07T13:46:56.267Z,102090.50
2022-10-07T13:49:26.288Z,102087.84
2022-10-07T13:51:56.357Z,102080.84
2022-10-07T13:54:24.406Z,102082.47
2022-10-07T13:56:51.586Z,102074.59
2022-10-07T13:59:20.008Z,102073.44
2022-10-07T14:01:52.414Z,102067.03
2022-10-07T14:04:21.440Z,102060.41
2022-10-07T14:06:51.430Z,102053.22
2022-10-07T14:09:21.658Z,102055.78
2022-10-07T14:11:52.325Z,102050.28
2022-10-07T14:14:20.680Z,102045.47
2022-10-07T14:16:49.930Z,102048.47
2022-10-07T14:19:21.017Z,102047.34
2022-10-07T14:21:48.523Z,102036.47
2022-10-07T14:24:19.192Z,102032.31
2022-10-07T14:26:46.302Z,102034.38
2022-10-07T14:29:28.118Z,102031.47
2022-10-07T14:32:36.195Z,102030.41
2022-10-07T14:35:24.222Z,102024.00
2022-10-07T14:37:51.426Z,102018.59
2022-10-07T14:40:19.694Z,102012.53
2022-10-07T14:42:47.252Z,102009.22
2022-10-07T14:45:17.048Z,102007.72
2022-10-07T14:47:44.683Z,101999.19
2022-10-07T14:50:15.175Z,102003.38
2022-10-07T14:52:47.869Z,101991.16
2022-10-07T14:55:17.247Z,101988.78
2022-10-07T14:57:44.623Z,101986.16
2022-10-07T15:00:17.773Z,101983.59
2022-10-07T15:02:45.333Z,101979.56
2022-10-07T15:05:13.474Z,101981.47
2022-10-07T15:07:42.416Z,101983.31
2022-10-07T15:10:14.370Z,101977.25
2022-10-07T15:12:41.751Z,101982.19
2022-10-07T15:15:08.754Z,101976.47
2022-10-07T15:17:35.859Z,101980.69
2022-10-07T15:20:04.592Z,101983.25
2022-10-07T15:22:31.860Z,101976.47
2022-10-07T15:24:58.703Z,101974.81
2022-10-07T15:27:25.738Z,101971.88
2022-10-07T15:29:53.948Z,101975.16
2022-10-07T15:32:24.169Z,101980.72
2022-10-07T15:34:54.576Z,101970.59
2022-10-07T15:37:22.377Z,101977.78
2022-10-07T15:39:50.922Z,101973.00
2022-10-07T15:42:18.205Z,101981.53
2022-10-07T15:44:48.157Z,101971.53
2022-10-07T15:47:15.336Z,101961.75
2022-10-07T15:49:43.367Z,101968.06
2022-10-07T15:52:11.695Z,101966.22
2022-10-07T15:54:39.228Z,101957.94
2022-10-07T15:57:06.195Z,101964.56
2022-10-07T15:59:33.111Z,101952.00
2022-10-07T16:02:00.440Z,101954.94
2022-10-07T16:04:28.041Z,101957.88
2022-10-07T16:06:54.942Z,101956.06
2022-10-07T16:09:22.490Z,101951.91
2022-10-07T16:11:49.777Z,101950.97
2022-10-07T16:14:16.724Z,101950.13
2022-10-07T16:16:44.165Z,101949.63
2022-10-07T16:19:11.868Z,101952.09
2022-10-07T16:21:39.926Z,101948.88
2022-10-07T16:24:09.857Z,101944.16
2022-10-07T16:26:37.658Z,101956.44
2022-10-07T16:29:25.920Z,101964.09
2022-10-07T16:31:58.380Z,101954.13
2022-10-07T16:34:26.422Z,101957.72
2022-10-07T16:36:53.597Z,101947.75
2022-10-07T16:39:21.500Z,101956.56
2022-10-07T16:41:49.157Z,101948.94
2022-10-07T16:44:16.448Z,101947.16
2022-10-07T16:46:43.508Z,101940.09
2022-10-07T16:49:14.928Z,101944.66
2022-10-07T16:51:42.349Z,101937.91
2022-10-07T16:54:15.975Z,101939.59
2022-10-07T16:56:49.314Z,101939.03
2022-10-07T16:59:22.484Z,101936.16
2022-10-07T17:01:51.115Z,101946.00
2022-10-07T17:04:18.274Z,101947.59
2022-10-07T17:06:46.557Z,101940.88
2022-10-07T17:09:14.225Z,101938.44
2022-10-07T17:11:41.754Z,101942.03
2022-10-07T17:14:16.815Z,101941.56
2022-10-07T17:16:48.216Z,101939.31
2022-10-07T17:19:17.645Z,101937.69
2022-10-07T17:21:46.467Z,101936.44
2022-10-07T17:24:13.598Z,101941.00
2022-10-07T17:26:40.601Z,101941.88
2022-10-07T17:29:12.228Z,101938.69
2022-10-07T17:31:40.517Z,101941.03
2022-10-07T17:34:07.632Z,101936.88
2022-10-07T17:36:35.413Z,101942.41
2022-10-07T17:39:02.412Z,101940.47
2022-10-07T17:41:31.301Z,101937.81
2022-10-07T17:43:59.625Z,101938.66
2022-10-07T17:46:28.535Z,101936.81
2022-10-07T17:48:56.586Z,101930.50
2022-10-07T17:51:24.699Z,101925.47
2022-10-07T17:53:52.794Z,101920.66
2022-10-07T17:56:20.380Z,101920.41
2022-10-07T17:58:48.044Z,101915.47
2022-10-07T18:01:17.739Z,101915.13
2022-10-07T18:03:50.041Z,101915.22
2022-10-07T18:06:17.390Z,101912.97
2022-10-07T18:08:44.547Z,101913.09
2022-10-07T18:11:11.974Z,101908.88
2022-10-07T18:13:57.739Z,101903.56
2022-10-07T18:16:25.008Z,101894.19
2022-10-07T18:18:55.597Z,101895.16
2022-10-07T18:21:24.035Z,101891.97
2022-10-07T18:23:52.306Z,101895.34
2022-10-07T18:26:19.470Z,101893.22
2022-10-07T18:28:47.049Z,101887.03
2022-10-07T18:31:15.767Z,101883.25
2022-10-07T18:33:43.030Z,101879.47
2022-10-07T18:36:11.741Z,101879.34
2022-10-07T18:38:42.309Z,101883.56
2022-10-07T18:41:14.253Z,101877.47
2022-10-07T18:43:41.936Z,101882.50
2022-10-07T18:46:13.067Z,101881.72
2022-10-07T18:48:41.903Z,101881.19
2022-10-07T18:51:09.974Z,101876.84
2022-10-07T18:53:37.750Z,101873.38
2022-10-07T18:56:06.562Z,101872.03
2022-10-07T18:58:37.417Z,101873.38
2022-10-07T19:01:12.073Z,101871.22
2022-10-07T19:03:39.278Z,101872.34
2022-10-07T19:06:07.274Z,101860.25
2022-10-07T19:08:34.256Z,101864.97
2022-10-07T19:11:08.985Z,101859.69
2022-10-07T19:13:48.531Z,101860.13
2022-10-07T19:16:16.385Z,101855.56
2022-10-07T19:18:44.437Z,101863.25
2022-10-07T19:21:12.698Z,101857.22
2022-10-07T19:23:40.700Z,101857.47
2022-10-07T19:26:08.321Z,101859.66
2022-10-07T19:28:39.286Z,101848.53
2022-10-07T19:31:12.394Z,101853.28
2022-10-07T19:33:40.028Z,101853.50
2022-10-07T19:36:07.229Z,101860.72
2022-10-07T19:38:34.782Z,101851.53
2022-10-07T19:41:02.130Z,101852.16
2022-10-07T19:43:29.216Z,101852.09
2022-10-07T19:46:01.743Z,101839.19
2022-10-07T19:48:30.140Z,101844.53
2022-10-07T19:51:01.192Z,101847.09
2022-10-07T19:53:33.862Z,101841.56
2022-10-07T19:56:06.226Z,101847.97
2022-10-07T19:58:33.018Z,101837.88
2022-10-07T20:01:04.594Z,101833.75
2022-10-07T20:03:32.289Z,101832.03
2022-10-07T20:06:05.740Z,101829.63
2022-10-07T20:08:33.428Z,101822.78
2022-10-07T20:11:03.731Z,101821.19
2022-10-07T20:13:34.932Z,101815.84
2022-10-07T20:16:12.789Z,101828.78
2022-10-07T20:18:42.639Z,101818.16
2022-10-07T20:21:12.099Z,101819.84
2022-10-07T20:23:40.625Z,101818.56
2022-10-07T20:26:19.168Z,101809.38
2022-10-07T20:28:50.420Z,101809.25
2022-10-07T20:31:19.115Z,101804.56
2022-10-07T20:33:47.151Z,101814.59
2022-10-07T20:36:15.440Z,101803.97
2022-10-07T20:39:01.377Z,101802.16
2022-10-07T20:41:47.738Z,101795.41
2022-10-07T20:44:16.008Z,101791.53
2022-10-07T20:46:43.255Z,101795.66
2022-10-07T20:49:22.080Z,101797.13
2022-10-07T20:51:53.291Z,101795.06
2022-10-07T20:54:21.998Z,101786.69
2022-10-07T20:56:50.785Z,101789.63
2022-10-07T20:59:18.177Z,101792.19
2022-10-07T21:01:45.473Z,101794.13
2022-10-07T21:04:13.802Z,101784.69
2022-10-07T21:06:41.129Z,101785.06
2022-10-07T21:09:08.450Z,101773.78
2022-10-07T21:11:35.602Z,101778.03
2022-10-07T21:14:02.738Z,101776.25
2022-10-07T21:16:31.033Z,101771.56
2022-10-07T21:18:58.327Z,101777.75
2022-10-07T21:21:25.789Z,101776.78
2022-10-07T21:23:53.244Z,101774.03
2022-10-07T21:26:20.706Z,101776.59
2022-10-07T21:28:48.897Z,101774.34
2022-10-07T21:31:18.884Z,101769.41
2022-10-07T21:33:47.167Z,101775.78
2022-10-07T21:36:18.417Z,101765.72
2022-10-07T21:38:47.303Z,101759.19
2022-10-07T21:41:15.766Z,101769.13
2022-10-07T21:43:44.269Z,101759.19
2022-10-07T21:46:11.272Z,101756.22
2022-10-07T21:48:38.545Z,101755.50
2022-10-07T21:51:09.493Z,101753.66
2022-10-07T21:53:36.810Z,101748.34
2022-10-07T21:56:05.530Z,101758.22
2022-10-07T21:58:33.461Z,101741.06
2022-10-07T22:01:04.801Z,101745.00
2022-10-07T22:03:32.171Z,101740.19
2022-10-07T22:06:02.715Z,101731.25
2022-10-07T22:08:35.707Z,101738.50
2022-10-07T22:11:06.170Z,101738.66
2022-10-07T22:13:34.501Z,101726.84
2022-10-07T22:16:02.558Z,101725.91
2022-10-07T22:18:32.611Z,101721.31
2022-10-07T22:21:04.177Z,101710.75
2022-10-07T22:23:31.268Z,101715.13
2022-10-07T22:26:04.889Z,101715.09
2022-10-07T22:28:33.226Z,101712.25
2022-10-07T22:31:02.008Z,101704.81
2022-10-07T22:33:29.549Z,101699.81
2022-10-07T22:35:56.650Z,101698.97
2022-10-07T22:38:25.422Z,101692.22
2022-10-07T22:40:52.284Z,101690.88
2022-10-07T22:43:19.401Z,101684.94
2022-10-07T22:45:55.550Z,101680.78
2022-10-07T22:48:22.954Z,101675.69
2022-10-07T22:50:49.909Z,101669.66
2022-10-07T22:53:17.004Z,101666.13
2022-10-07T22:55:44.111Z,101666.69
2022-10-07T22:58:11.064Z,101661.84
2022-10-07T23:00:38.409Z,101665.28
2022-10-07T23:03:05.903Z,101660.38
2022-10-07T23:05:37.388Z,101653.63
2022-10-07T23:08:05.452Z,101654.53
2022-10-07T23:10:32.549Z,101652.38
2022-10-07T23:13:00.902Z,101657.34
2022-10-07T23:15:28.039Z,101648.44
2022-10-07T23:17:55.090Z,101649.59
2022-10-07T23:20:24.747Z,101649.44
2022-10-07T23:22:51.646Z,101650.16
2022-10-07T23:25:18.741Z,101641.81
2022-10-07T23:27:45.534Z,101640.34
2022-10-07T23:30:12.684Z,101640.09
2022-10-07T23:32:39.731Z,101642.72
2022-10-07T23:35:06.641Z,101635.69
2022-10-07T23:37:33.589Z,101634.59
2022-10-07T23:40:00.706Z,101628.19
2022-10-07T23:42:29.403Z,101626.50
2022-10-07T23:44:56.561Z,101626.34
2022-10-07T23:47:23.570Z,101627.38
2022-10-07T23:49:50.437Z,101625.13
2022-10-07T23:52:17.389Z,101625.88
2022-10-07T23:54:45.028Z,101626.00
2022-10-07T23:57:11.881Z,101622.09
2022-10-07T23:59:38.757Z,101616.38
